Home   Weather   Slovakia   Bratislava   Past weeks
Flag for Slovakia

Past Weather in Bratislava, Slovakia — Yesterday and Last 2 Weeks

Currently: 77 °F. Clear. (Weather station: Bratislava Ivanka, Slovakia). See more current weather

Past Weather in Bratislava — Graph

°F

Bratislava Temperature Yesterday

Maximum temperature yesterday: 91 °F (at 5:30 pm)
Minimum temperature yesterday: 72 °F (at 1:00 am)
Average temperature yesterday: 81 °F

High & Low Weather Summary for the Past Weeks

 TemperatureHumidityPressure
High95 °F (Jul 10, 5:00 pm)94% (Jul 12, 6:00 am)30.09 "Hg (Jul 12, 6:00 am)
Low61 °F (Jul 3, 4:30 am)33% (Jul 17, 12:30 pm)29.68 "Hg (Jul 12, 9:00 pm)
Average77 °F60%29.91 "Hg
* Reported Jul 2 8:00 pm — Jul 17 8:30 pm, Bratislava. Weather by CustomWeather, © 2024

Note: Actual official high and low records may vary slightly from our data, if they occured in-between our weather recording intervals... More about our weather records

Bratislava Weather History for the Previous 24 Hours

Scroll right to see more
 ConditionsComfort  
Time TempWeatherWind HumidityBarometerVisibility
8:30 pm
Wed, Jul 17
79 °FSunny.14 mph48%30.09 "Hg10 mi
8:00 pm79 °FSunny.10 mph48%30.09 "Hg10 mi
7:30 pm79 °FSunny.12 mph48%30.07 "Hg10 mi
7:00 pm79 °FSunny.16 mph48%30.07 "Hg10 mi
6:30 pm81 °FSunny.16 mph48%30.04 "Hg10 mi
6:00 pm82 °FSunny.14 mph45%30.04 "Hg10 mi
5:30 pm81 °FSunny.14 mph48%30.04 "Hg10 mi
5:00 pm81 °FSunny.18 mph51%30.04 "Hg10 mi
4:00 pm84 °FSunny.17 mph43%30.04 "Hg10 mi
3:00 pm86 °FSunny.18 mph38%30.04 "Hg10 mi
2:30 pm88 °FSunny.17 mph33%30.04 "Hg10 mi
2:00 pm88 °FPassing clouds.15 mph33%30.04 "HgN/A
1:30 pm88 °FSunny.15 mph33%30.04 "Hg10 mi
1:00 pm88 °FSunny.15 mph33%30.04 "Hg10 mi
12:30 pm86 °FSunny.16 mph33%30.04 "Hg10 mi
12:00 pm86 °FSunny.15 mph35%30.04 "Hg10 mi
11:30 am84 °FSunny.13 mph43%30.07 "Hg10 mi
11:00 am82 °FSunny.13 mph48%30.07 "Hg10 mi
10:30 am82 °FSunny.13 mph48%30.07 "Hg10 mi
10:00 am81 °FPassing clouds.9 mph51%30.07 "HgN/A
9:30 am81 °FSunny.10 mph51%30.07 "Hg10 mi
9:00 am79 °FSunny.15 mph54%30.07 "Hg10 mi
8:30 am77 °FSunny.14 mph61%30.07 "Hg10 mi
8:00 am75 °FSunny.13 mph69%30.07 "Hg10 mi
7:30 am75 °FSunny.9 mph65%30.04 "Hg10 mi
7:00 am75 °FSunny.7 mph65%30.04 "Hg10 mi
6:30 am75 °FPassing clouds.8 mph69%30.04 "HgN/A
6:00 am73 °FSunny.12 mph69%30.04 "Hg10 mi
5:30 am75 °FSunny.12 mph65%30.01 "Hg10 mi
5:00 am75 °FClear.3 mph65%30.01 "Hg10 mi
4:30 am75 °FClear.6 mph65%30.01 "Hg10 mi
4:00 am77 °FClear.12 mph57%30.01 "Hg10 mi
3:30 am77 °FClear.13 mph61%30.01 "Hg10 mi
3:00 am77 °FClear.12 mph61%30.01 "Hg10 mi
2:30 am79 °FClear.9 mph54%30.01 "Hg10 mi
2:00 am79 °FPassing clouds.8 mph54%29.98 "HgN/A
1:30 am79 °FClear.7 mph58%29.98 "Hg10 mi
1:00 am77 °FPassing clouds.3 mph61%29.98 "HgN/A
12:30 am79 °FClear.6 mph58%29.98 "Hg10 mi
12:00 am81 °FClear.8 mph54%29.98 "Hg10 mi
11:30 pm
Tue, Jul 16
82 °FClear.8 mph51%29.98 "Hg10 mi
11:00 pm81 °FClear.3 mph54%29.95 "Hg10 mi
10:30 pm77 °FPassing clouds.5 mph61%29.95 "HgN/A
10:00 pm79 °FClear.5 mph58%29.95 "Hg10 mi
9:30 pm81 °FClear.6 mph54%29.92 "Hg10 mi
9:00 pm82 °FClear.7 mph51%29.92 "Hg10 mi
Weather by CustomWeather, © 2024

See weather overview